Time;durP1;ratioP1;P1;durP2;ratioP2;P2;SDS_P1;SDS_P2;PMS_P1;PMS_P2;Temp;Humidity;BMP_temperature;BMP_pressure;BME280_temperature;BME280_humidity;BME280_pressure;Samples;Min_cycle;Max_cycle;Signal;HPM_P1;HPM_P2
2023/07/15 00:01:11;;;;;;;3.10;2.80;;;;;;;;;;5039285;28;20239;-66
2023/07/15 00:03:39;;;;;;;5.15;2.83;;;;;;;;;;5039700;28;20217;-66
2023/07/15 00:06:07;;;;;;;3.33;3.03;;;;;;;;;;5039227;28;20725;-67
2023/07/15 00:08:35;;;;;;;5.97;3.70;;;;;;;;;;5039247;28;20641;-66
2023/07/15 00:11:03;;;;;;;7.75;4.00;;;;;;;;;;5038193;28;20658;-66
2023/07/15 00:13:30;;;;;;;7.57;3.80;;;;;;;;;;5039144;28;20681;-66
2023/07/15 00:16:00;;;;;;;6.60;3.63;;;;;;;;;;5038950;28;20260;-67
2023/07/15 00:18:28;;;;;;;4.03;3.43;;;;;;;;;;5039314;28;20207;-67
2023/07/15 00:20:55;;;;;;;6.03;3.42;;;;;;;;;;5038960;28;20317;-67
2023/07/15 00:23:24;;;;;;;4.68;3.10;;;;;;;;;;5039198;28;20206;-67
2023/07/15 00:25:53;;;;;;;5.97;2.87;;;;;;;;;;5039117;28;20215;-67
2023/07/15 00:28:21;;;;;;;3.30;2.83;;;;;;;;;;5038877;28;20259;-67
2023/07/15 00:30:51;;;;;;;4.97;2.80;;;;;;;;;;5038877;28;20293;-67
2023/07/15 00:33:20;;;;;;;4.45;3.05;;;;;;;;;;5038924;28;20243;-66
2023/07/15 00:35:48;;;;;;;7.87;3.23;;;;;;;;;;5038655;28;20277;-67
2023/07/15 00:38:16;;;;;;;7.73;3.37;;;;;;;;;;5038865;28;20565;-67
2023/07/15 00:40:44;;;;;;;4.87;2.93;;;;;;;;;;5043074;28;20254;-67
2023/07/15 00:43:31;;;;;;;5.87;3.43;;;;;;;;;;5040419;28;20212;-67
2023/07/15 00:46:26;;;;;;;5.43;3.70;;;;;;;;;;5038692;28;20209;-67
2023/07/15 00:48:55;;;;;;;3.33;3.03;;;;;;;;;;5038780;28;20209;-67
2023/07/15 00:51:23;;;;;;;5.27;3.27;;;;;;;;;;5038436;28;20231;-67
2023/07/15 00:53:53;;;;;;;5.90;3.20;;;;;;;;;;5038623;28;20217;-67
2023/07/15 00:56:21;;;;;;;6.17;3.70;;;;;;;;;;5038308;28;20246;-66
2023/07/15 00:58:50;;;;;;;7.87;3.83;;;;;;;;;;5039583;28;20203;-67
2023/07/15 01:01:19;;;;;;;7.93;4.30;;;;;;;;;;5038802;28;20236;-66
2023/07/15 01:03:47;;;;;;;6.53;3.93;;;;;;;;;;5038381;28;20214;-66
2023/07/15 01:06:15;;;;;;;6.60;3.87;;;;;;;;;;5038324;28;20207;-67
2023/07/15 01:08:43;;;;;;;6.90;3.30;;;;;;;;;;5038191;28;20563;-66
2023/07/15 01:11:11;;;;;;;5.67;3.83;;;;;;;;;;5038043;28;20234;-66
2023/07/15 01:13:39;;;;;;;10.33;4.73;;;;;;;;;;5037733;28;20578;-66
2023/07/15 01:16:07;;;;;;;7.40;3.93;;;;;;;;;;5037998;28;20347;-66
2023/07/15 01:18:36;;;;;;;7.70;3.43;;;;;;;;;;5038103;28;20206;-66
2023/07/15 01:21:04;;;;;;;6.87;3.67;;;;;;;;;;5037766;28;20228;-66
2023/07/15 01:23:33;;;;;;;5.00;3.80;;;;;;;;;;5037816;28;20217;-66
2023/07/15 01:26:01;;;;;;;4.60;3.73;;;;;;;;;;5038181;28;20214;-66
2023/07/15 01:28:29;;;;;;;5.13;3.60;;;;;;;;;;5037756;28;20309;-66
2023/07/15 01:30:58;;;;;;;6.60;3.50;;;;;;;;;;5038026;28;20255;-66
2023/07/15 01:33:26;;;;;;;5.70;3.67;;;;;;;;;;5037744;28;20239;-66
2023/07/15 01:35:54;;;;;;;5.67;3.73;;;;;;;;;;5037649;28;20303;-66
2023/07/15 01:38:22;;;;;;;4.40;3.67;;;;;;;;;;5037655;28;20203;-66
2023/07/15 01:40:51;;;;;;;4.27;3.40;;;;;;;;;;5048694;28;20226;-66
2023/07/15 01:43:19;;;;;;;5.10;3.73;;;;;;;;;;5038846;28;20562;-66
2023/07/15 01:45:47;;;;;;;4.67;3.77;;;;;;;;;;5050277;28;20222;-66
2023/07/15 01:48:15;;;;;;;7.20;3.33;;;;;;;;;;5037651;28;20262;-66
2023/07/15 01:50:43;;;;;;;4.83;3.50;;;;;;;;;;5037833;28;20231;-66
2023/07/15 01:53:11;;;;;;;7.40;3.97;;;;;;;;;;5037656;28;20214;-66
2023/07/15 01:55:38;;;;;;;6.00;3.47;;;;;;;;;;5037830;28;20218;-66
2023/07/15 01:58:07;;;;;;;4.90;3.50;;;;;;;;;;5037504;28;20232;-66
2023/07/15 02:00:35;;;;;;;4.63;2.90;;;;;;;;;;5044432;28;20243;-66
2023/07/15 02:03:03;;;;;;;7.57;3.57;;;;;;;;;;5037661;28;20207;-66
2023/07/15 02:05:31;;;;;;;8.37;3.97;;;;;;;;;;5037678;28;20212;-66
2023/07/15 02:07:59;;;;;;;6.40;3.17;;;;;;;;;;5037410;28;20230;-66
2023/07/15 02:10:28;;;;;;;6.53;3.23;;;;;;;;;;5037615;28;20824;-66
2023/07/15 02:12:56;;;;;;;4.80;3.10;;;;;;;;;;5037329;28;20232;-66
2023/07/15 02:15:25;;;;;;;5.97;3.27;;;;;;;;;;5037646;28;20228;-66
2023/07/15 02:17:52;;;;;;;11.07;3.10;;;;;;;;;;5037509;28;20230;-66
2023/07/15 02:20:21;;;;;;;4.03;2.97;;;;;;;;;;5037165;28;20239;-66
2023/07/15 02:22:48;;;;;;;4.90;3.43;;;;;;;;;;5037104;28;20268;-66
2023/07/15 02:25:17;;;;;;;3.80;2.70;;;;;;;;;;5037494;28;20207;-66
2023/07/15 02:27:45;;;;;;;4.70;3.13;;;;;;;;;;5037113;28;20279;-66
2023/07/15 02:30:12;;;;;;;5.63;3.00;;;;;;;;;;5037375;28;20236;-66
2023/07/15 02:32:43;;;;;;;6.40;3.13;;;;;;;;;;5036931;28;20317;-66
2023/07/15 02:35:12;;;;;;;6.17;3.23;;;;;;;;;;5039457;28;20235;-66
2023/07/15 02:37:40;;;;;;;6.23;3.37;;;;;;;;;;5040903;28;20226;-65
2023/07/15 02:40:10;;;;;;;4.20;2.70;;;;;;;;;;5045157;28;20227;-66
2023/07/15 02:42:38;;;;;;;3.07;2.60;;;;;;;;;;5040916;28;20207;-66
2023/07/15 02:45:08;;;;;;;10.30;3.63;;;;;;;;;;5049555;28;20199;-66
2023/07/15 02:47:36;;;;;;;4.87;2.67;;;;;;;;;;5047408;28;20207;-66
2023/07/15 02:50:08;;;;;;;5.50;3.33;;;;;;;;;;5060793;28;20238;-66
2023/07/15 02:52:36;;;;;;;6.03;3.50;;;;;;;;;;5060856;28;20256;-66
2023/07/15 02:55:05;;;;;;;6.17;2.80;;;;;;;;;;5060504;28;20213;-66
2023/07/15 02:57:33;;;;;;;4.57;3.00;;;;;;;;;;5060506;28;20250;-66
2023/07/15 03:00:03;;;;;;;7.43;3.43;;;;;;;;;;5058277;28;20261;-66
2023/07/15 03:02:31;;;;;;;6.63;2.67;;;;;;;;;;5040698;28;20744;-66
2023/07/15 03:04:59;;;;;;;5.70;3.00;;;;;;;;;;5040412;28;20210;-66
2023/07/15 03:07:28;;;;;;;4.43;2.70;;;;;;;;;;5040571;28;20214;-66
2023/07/15 03:09:56;;;;;;;6.93;3.17;;;;;;;;;;5040503;28;20234;-66
2023/07/15 03:12:24;;;;;;;7.13;3.20;;;;;;;;;;5040129;28;20239;-66
2023/07/15 03:14:52;;;;;;;6.33;3.37;;;;;;;;;;5040500;28;20218;-66
2023/07/15 03:17:20;;;;;;;3.70;3.10;;;;;;;;;;5040209;28;20615;-66
2023/07/15 03:19:48;;;;;;;5.40;3.43;;;;;;;;;;5040336;28;20251;-66
2023/07/15 03:22:15;;;;;;;5.73;3.20;;;;;;;;;;5039992;28;20214;-66
2023/07/15 03:24:44;;;;;;;6.17;3.23;;;;;;;;;;5040049;28;20223;-66
2023/07/15 03:27:12;;;;;;;10.07;3.10;;;;;;;;;;5040102;28;20208;-66
2023/07/15 03:29:40;;;;;;;4.47;2.83;;;;;;;;;;5040123;28;20233;-66
2023/07/15 03:32:07;;;;;;;7.10;3.00;;;;;;;;;;5040072;28;20295;-66
2023/07/15 03:34:35;;;;;;;7.40;3.70;;;;;;;;;;5039831;28;20557;-66
2023/07/15 03:37:04;;;;;;;7.87;3.33;;;;;;;;;;5039969;28;20209;-66
2023/07/15 03:39:32;;;;;;;4.80;3.23;;;;;;;;;;5046991;28;20219;-66
2023/07/15 03:42:02;;;;;;;4.97;2.73;;;;;;;;;;5045891;28;20209;-66
2023/07/15 03:44:29;;;;;;;5.80;3.03;;;;;;;;;;5049816;28;20565;-66
2023/07/15 03:46:57;;;;;;;5.70;2.97;;;;;;;;;;5042350;28;20208;-66
2023/07/15 03:49:25;;;;;;;3.20;2.60;;;;;;;;;;5039944;28;20273;-66
2023/07/15 03:51:53;;;;;;;5.77;2.67;;;;;;;;;;5039411;28;20206;-66
2023/07/15 03:54:21;;;;;;;6.50;2.90;;;;;;;;;;5039853;28;20207;-66
2023/07/15 03:56:49;;;;;;;6.47;3.17;;;;;;;;;;5039498;28;20669;-66
2023/07/15 03:59:18;;;;;;;5.47;2.70;;;;;;;;;;5044631;28;20568;-66
2023/07/15 04:01:45;;;;;;;4.97;3.20;;;;;;;;;;5041078;28;20230;-66
2023/07/15 04:04:13;;;;;;;5.13;3.00;;;;;;;;;;5039426;28;20210;-66
2023/07/15 04:06:41;;;;;;;9.23;2.53;;;;;;;;;;5039314;28;20664;-66
2023/07/15 04:09:11;;;;;;;8.93;3.20;;;;;;;;;;5039504;28;20240;-66
2023/07/15 04:11:39;;;;;;;11.07;3.30;;;;;;;;;;5046155;28;20232;-66
2023/07/15 04:14:07;;;;;;;6.37;3.27;;;;;;;;;;5059375;28;20212;-66
2023/07/15 04:16:36;;;;;;;4.37;2.70;;;;;;;;;;5059269;28;20210;-66
2023/07/15 04:19:04;;;;;;;7.33;3.10;;;;;;;;;;5058971;28;20201;-66
2023/07/15 04:21:32;;;;;;;7.50;2.63;;;;;;;;;;5058763;28;20799;-66
2023/07/15 04:23:59;;;;;;;4.57;2.90;;;;;;;;;;5059098;28;20205;-66
2023/07/15 04:26:27;;;;;;;8.80;3.23;;;;;;;;;;5058850;28;20209;-66
2023/07/15 04:28:56;;;;;;;6.57;3.43;;;;;;;;;;5058669;28;20221;-67
2023/07/15 04:31:23;;;;;;;8.40;2.83;;;;;;;;;;5058966;28;20323;-66
2023/07/15 04:33:53;;;;;;;8.67;2.63;;;;;;;;;;5058593;28;20281;-66
2023/07/15 04:36:21;;;;;;;4.13;2.80;;;;;;;;;;5058853;28;20227;-66
2023/07/15 04:38:49;;;;;;;7.10;2.50;;;;;;;;;;5058628;28;20206;-66
2023/07/15 04:41:17;;;;;;;5.63;2.93;;;;;;;;;;5048382;28;20244;-66
2023/07/15 04:43:45;;;;;;;6.43;2.77;;;;;;;;;;5042771;28;20201;-66
2023/07/15 04:46:13;;;;;;;9.07;3.57;;;;;;;;;;5054343;28;20692;-66
2023/07/15 04:48:41;;;;;;;5.90;3.20;;;;;;;;;;5058685;28;20297;-66
2023/07/15 04:51:10;;;;;;;5.97;2.80;;;;;;;;;;5058417;28;20240;-64
2023/07/15 04:53:43;;;;;;;9.30;3.10;;;;;;;;;;5058353;28;20253;-64
2023/07/15 04:56:11;;;;;;;6.47;2.80;;;;;;;;;;5058301;28;20222;-65
2023/07/15 04:58:39;;;;;;;9.47;3.30;;;;;;;;;;5057664;28;20252;-66
2023/07/15 05:01:07;;;;;;;7.13;3.03;;;;;;;;;;5039617;28;20596;-67
2023/07/15 05:03:35;;;;;;;6.57;2.80;;;;;;;;;;5038505;28;20210;-66
2023/07/15 05:06:03;;;;;;;6.87;2.90;;;;;;;;;;5038386;28;20296;-66
2023/07/15 05:08:32;;;;;;;7.23;2.60;;;;;;;;;;5038196;28;20238;-65
2023/07/15 05:11:00;;;;;;;8.13;3.00;;;;;;;;;;5038215;28;20298;-66
2023/07/15 05:13:28;;;;;;;8.30;2.90;;;;;;;;;;5037960;28;20233;-66
2023/07/15 05:15:56;;;;;;;6.03;2.83;;;;;;;;;;5037992;28;20300;-66
2023/07/15 05:18:24;;;;;;;11.43;4.43;;;;;;;;;;5037913;28;20210;-64
2023/07/15 05:20:52;;;;;;;5.90;2.87;;;;;;;;;;5038233;28;20222;-65
2023/07/15 05:23:20;;;;;;;6.13;2.77;;;;;;;;;;5038173;28;20242;-65
2023/07/15 05:25:51;;;;;;;4.67;2.80;;;;;;;;;;5038506;28;20223;-65
2023/07/15 05:28:19;;;;;;;5.63;2.70;;;;;;;;;;5037815;28;20252;-65
2023/07/15 05:30:47;;;;;;;6.83;3.00;;;;;;;;;;5037917;28;20232;-65
2023/07/15 05:33:14;;;;;;;5.43;3.10;;;;;;;;;;5037682;28;20301;-65
2023/07/15 05:35:42;;;;;;;7.63;3.40;;;;;;;;;;5038089;28;20544;-65
2023/07/15 05:38:10;;;;;;;4.73;2.77;;;;;;;;;;5062244;28;20194;-65
2023/07/15 05:40:40;;;;;;;5.37;2.90;;;;;;;;;;5070356;28;20322;-65
2023/07/15 05:43:10;;;;;;;3.73;2.47;;;;;;;;;;5062519;28;20821;-66
2023/07/15 05:45:38;;;;;;;4.03;2.90;;;;;;;;;;5063948;28;20203;-65
2023/07/15 05:48:06;;;;;;;6.13;3.00;;;;;;;;;;5067469;28;20223;-65
2023/07/15 05:50:37;;;;;;;4.57;3.03;;;;;;;;;;5066295;28;20692;-65
2023/07/15 05:53:04;;;;;;;8.17;3.03;;;;;;;;;;5067643;28;20219;-65
2023/07/15 05:55:33;;;;;;;15.50;2.93;;;;;;;;;;5037522;28;20208;-66
2023/07/15 05:58:01;;;;;;;4.27;2.97;;;;;;;;;;5037367;28;20240;-65
2023/07/15 06:00:30;;;;;;;6.30;2.87;;;;;;;;;;5044566;28;20292;-66
2023/07/15 06:02:58;;;;;;;5.00;2.53;;;;;;;;;;5039947;28;20200;-65
2023/07/15 06:05:27;;;;;;;5.67;3.10;;;;;;;;;;5047319;28;20297;-66
2023/07/15 06:07:55;;;;;;;7.55;3.00;;;;;;;;;;5039986;28;20214;-66
2023/07/15 06:10:22;;;;;;;7.53;2.92;;;;;;;;;;5041448;28;20599;-66
2023/07/15 06:12:50;;;;;;;5.25;3.45;;;;;;;;;;5041099;28;20551;-66
2023/07/15 06:15:18;;;;;;;6.53;3.05;;;;;;;;;;5047799;28;20734;-66
2023/07/15 06:17:47;;;;;;;5.77;2.73;;;;;;;;;;5052873;28;20299;-66
2023/07/15 06:20:15;;;;;;;3.20;2.80;;;;;;;;;;5041513;28;20261;-66
2023/07/15 06:22:43;;;;;;;6.25;2.85;;;;;;;;;;5041383;28;20214;-66
2023/07/15 06:25:11;;;;;;;5.78;2.85;;;;;;;;;;5041314;28;20649;-66
2023/07/15 06:27:39;;;;;;;5.75;2.95;;;;;;;;;;5041051;28;20294;-66
2023/07/15 06:30:08;;;;;;;5.97;3.00;;;;;;;;;;5041208;28;20235;-66
2023/07/15 06:32:36;;;;;;;6.87;3.13;;;;;;;;;;5040815;28;20239;-65
2023/07/15 06:35:06;;;;;;;8.90;3.00;;;;;;;;;;5040993;28;20214;-66
2023/07/15 06:37:35;;;;;;;4.70;3.13;;;;;;;;;;5040998;28;20290;-66
2023/07/15 06:40:04;;;;;;;5.32;2.85;;;;;;;;;;5045233;28;20215;-66
2023/07/15 06:42:32;;;;;;;6.75;3.22;;;;;;;;;;5044376;28;20216;-66
2023/07/15 06:44:59;;;;;;;5.38;2.60;;;;;;;;;;5054370;28;20206;-67
2023/07/15 06:47:27;;;;;;;6.97;3.50;;;;;;;;;;5044634;28;20200;-66
2023/07/15 06:49:55;;;;;;;8.67;2.93;;;;;;;;;;5040869;28;20233;-65
2023/07/15 06:52:24;;;;;;;8.73;3.15;;;;;;;;;;5040949;28;20230;-67
2023/07/15 06:54:52;;;;;;;5.03;2.70;;;;;;;;;;5040841;28;20215;-66
2023/07/15 06:57:20;;;;;;;7.22;2.85;;;;;;;;;;5040393;28;20211;-66
2023/07/15 06:59:48;;;;;;;4.75;2.53;;;;;;;;;;5047493;28;20697;-64
2023/07/15 07:02:15;;;;;;;5.32;2.53;;;;;;;;;;5040726;28;20215;-66
2023/07/15 07:04:43;;;;;;;2.90;2.33;;;;;;;;;;5040688;28;20227;-62
2023/07/15 07:07:11;;;;;;;2.90;2.50;;;;;;;;;;5040606;28;20211;-62
2023/07/15 07:09:40;;;;;;;5.40;2.60;;;;;;;;;;5040591;28;20213;-62
2023/07/15 07:12:08;;;;;;;2.80;2.50;;;;;;;;;;5040291;28;20733;-68
2023/07/15 07:14:36;;;;;;;5.78;2.67;;;;;;;;;;5040470;28;20213;-68
2023/07/15 07:17:03;;;;;;;7.07;2.72;;;;;;;;;;5040533;28;20212;-67
2023/07/15 07:19:31;;;;;;;5.75;3.15;;;;;;;;;;5040171;28;20664;-68
2023/07/15 07:21:59;;;;;;;4.88;2.63;;;;;;;;;;5040007;28;20214;-69
2023/07/15 07:24:26;;;;;;;5.07;2.70;;;;;;;;;;5040317;28;20207;-69
2023/07/15 07:26:56;;;;;;;3.55;2.38;;;;;;;;;;5040151;28;20217;-69
2023/07/15 07:29:23;;;;;;;4.60;2.60;;;;;;;;;;5047340;28;20214;-69
2023/07/15 07:31:54;;;;;;;6.60;2.38;;;;;;;;;;5048885;28;20229;-69
2023/07/15 07:34:22;;;;;;;3.00;2.17;;;;;;;;;;5050190;28;20244;-68
2023/07/15 07:36:50;;;;;;;4.32;2.53;;;;;;;;;;5043483;28;20662;-66
2023/07/15 07:39:18;;;;;;;4.65;2.83;;;;;;;;;;5039683;28;20219;-67
2023/07/15 07:41:45;;;;;;;4.28;2.70;;;;;;;;;;5042032;28;20311;-67
2023/07/15 07:44:15;;;;;;;4.95;2.40;;;;;;;;;;5047526;28;20216;-67
2023/07/15 07:46:42;;;;;;;5.00;2.70;;;;;;;;;;5042309;28;20211;-66
2023/07/15 07:49:10;;;;;;;3.88;2.78;;;;;;;;;;5046996;28;20647;-66
2023/07/15 07:51:38;;;;;;;4.65;2.58;;;;;;;;;;5041715;28;20235;-66
2023/07/15 07:54:06;;;;;;;7.60;3.05;;;;;;;;;;5039735;28;20203;-66
2023/07/15 07:56:35;;;;;;;3.05;2.13;;;;;;;;;;5042888;28;20285;-66
2023/07/15 07:59:03;;;;;;;5.50;2.45;;;;;;;;;;5059321;28;20248;-66
2023/07/15 08:01:33;;;;;;;5.68;2.90;;;;;;;;;;5040084;28;20657;-66
2023/07/15 08:04:01;;;;;;;6.15;2.60;;;;;;;;;;5052517;28;20209;-66
2023/07/15 08:06:29;;;;;;;4.50;2.65;;;;;;;;;;5059174;28;20221;-67
2023/07/15 08:08:57;;;;;;;3.40;2.70;;;;;;;;;;5059198;28;20246;-67
2023/07/15 08:11:24;;;;;;;8.02;2.35;;;;;;;;;;5058882;28;20238;-67
2023/07/15 08:13:53;;;;;;;6.05;2.53;;;;;;;;;;5059178;28;20298;-67
2023/07/15 08:16:32;;;;;;;3.88;2.55;;;;;;;;;;5048272;28;20290;-67
2023/07/15 08:19:00;;;;;;;5.30;2.85;;;;;;;;;;5053196;28;20203;-67
2023/07/15 08:21:28;;;;;;;5.90;2.95;;;;;;;;;;5049422;28;20310;-67
2023/07/15 08:23:56;;;;;;;6.95;2.70;;;;;;;;;;5039279;28;20211;-65
2023/07/15 08:26:24;;;;;;;5.80;2.92;;;;;;;;;;5038764;28;20601;-67
2023/07/15 08:28:55;;;;;;;4.57;2.83;;;;;;;;;;5038958;28;20233;-66
2023/07/15 08:31:23;;;;;;;4.75;2.95;;;;;;;;;;5038347;28;20231;-68
2023/07/15 08:33:52;;;;;;;6.20;3.35;;;;;;;;;;5051593;28;20235;-68
2023/07/15 08:36:20;;;;;;;7.57;2.47;;;;;;;;;;5042750;28;20217;-62
2023/07/15 08:38:47;;;;;;;6.68;2.50;;;;;;;;;;5038750;28;20218;-61
2023/07/15 08:41:16;;;;;;;6.70;2.78;;;;;;;;;;5045256;28;20230;-62
2023/07/15 08:43:45;;;;;;;10.27;3.83;;;;;;;;;;5038712;28;20206;-61
2023/07/15 08:46:21;;;;;;;5.47;2.50;;;;;;;;;;5038803;28;20211;-62
2023/07/15 08:48:49;;;;;;;4.40;3.33;;;;;;;;;;5037525;28;20231;-62
2023/07/15 08:51:18;;;;;;;6.10;2.45;;;;;;;;;;5038231;28;20234;-61
2023/07/15 08:53:46;;;;;;;3.72;2.70;;;;;;;;;;5038388;28;20576;-62
2023/07/15 08:56:15;;;;;;;3.35;2.53;;;;;;;;;;5038461;28;20650;-61
2023/07/15 08:58:44;;;;;;;5.10;2.72;;;;;;;;;;5039100;28;20210;-62
2023/07/15 09:01:11;;;;;;;5.35;2.75;;;;;;;;;;5048196;28;20310;-61
2023/07/15 09:03:40;;;;;;;6.88;2.80;;;;;;;;;;5038179;28;20295;-61
2023/07/15 09:06:08;;;;;;;6.80;3.10;;;;;;;;;;5038422;28;20724;-61
2023/07/15 09:08:37;;;;;;;5.00;2.67;;;;;;;;;;5038433;28;20207;-61
2023/07/15 09:11:06;;;;;;;4.35;3.42;;;;;;;;;;5037754;28;20227;-61
2023/07/15 09:13:35;;;;;;;5.68;3.00;;;;;;;;;;5038263;28;20257;-62
2023/07/15 09:16:03;;;;;;;6.88;2.78;;;;;;;;;;5044615;28;20291;-62
2023/07/15 09:18:31;;;;;;;6.22;2.88;;;;;;;;;;5042886;28;20207;-61
2023/07/15 09:21:09;;;;;;;5.85;3.10;;;;;;;;;;5037786;28;20234;-62
2023/07/15 09:23:40;;;;;;;4.95;3.10;;;;;;;;;;5038077;28;20207;-62
2023/07/15 09:26:08;;;;;;;5.18;3.17;;;;;;;;;;5037934;28;20299;-62
2023/07/15 09:28:36;;;;;;;5.13;3.03;;;;;;;;;;5038117;28;20215;-61
2023/07/15 09:31:04;;;;;;;4.38;2.80;;;;;;;;;;5038012;28;20258;-61
2023/07/15 09:33:33;;;;;;;11.13;3.30;;;;;;;;;;5048948;28;20234;-61
2023/07/15 09:36:01;;;;;;;5.07;2.88;;;;;;;;;;5037945;28;20662;-61
2023/07/15 09:38:32;;;;;;;6.55;2.65;;;;;;;;;;5037928;28;20234;-61
2023/07/15 09:41:02;;;;;;;6.38;2.78;;;;;;;;;;5049358;28;20226;-61
2023/07/15 09:43:44;;;;;;;5.93;2.75;;;;;;;;;;5037466;28;20715;-61
2023/07/15 09:46:13;;;;;;;5.40;2.63;;;;;;;;;;5037850;28;20213;-61
2023/07/15 09:48:42;;;;;;;3.83;2.80;;;;;;;;;;5037589;28;20261;-61
2023/07/15 09:51:11;;;;;;;3.70;2.30;;;;;;;;;;5037565;28;20238;-61
2023/07/15 09:53:40;;;;;;;6.13;2.42;;;;;;;;;;5037687;28;20290;-61
2023/07/15 09:56:10;;;;;;;6.65;2.60;;;;;;;;;;5037542;28;20225;-61
2023/07/15 09:58:40;;;;;;;6.35;2.60;;;;;;;;;;5037714;28;20231;-61
2023/07/15 10:01:11;;;;;;;7.00;3.22;;;;;;;;;;5037600;28;20237;-61
2023/07/15 10:03:41;;;;;;;13.95;3.47;;;;;;;;;;5037370;28;20252;-61
2023/07/15 10:06:10;;;;;;;5.95;2.67;;;;;;;;;;5037509;28;20211;-61
2023/07/15 10:08:38;;;;;;;4.35;2.53;;;;;;;;;;5037479;28;20631;-61
2023/07/15 10:11:07;;;;;;;4.40;2.50;;;;;;;;;;5037063;28;20231;-61
2023/07/15 10:13:36;;;;;;;5.47;2.97;;;;;;;;;;5037502;28;20226;-61
2023/07/15 10:16:05;;;;;;;3.70;2.40;;;;;;;;;;5037651;28;20203;-62
2023/07/15 10:18:32;;;;;;;3.75;2.40;;;;;;;;;;5050880;28;20199;-62
2023/07/15 10:21:02;;;;;;;5.40;2.65;;;;;;;;;;5037417;28;20227;-62
2023/07/15 10:23:31;;;;;;;6.28;3.45;;;;;;;;;;5037371;28;20203;-61
2023/07/15 10:26:00;;;;;;;4.38;2.38;;;;;;;;;;5037209;28;20294;-61
2023/07/15 10:28:30;;;;;;;10.25;2.90;;;;;;;;;;5037261;28;20217;-61
2023/07/15 10:31:13;;;;;;;4.93;2.50;;;;;;;;;;5037143;28;20239;-61
2023/07/15 10:33:55;;;;;;;3.63;2.40;;;;;;;;;;5036947;28;20236;-61
2023/07/15 10:36:40;;;;;;;9.73;2.63;;;;;;;;;;5037225;28;20217;-61
2023/07/15 10:39:11;;;;;;;5.13;2.40;;;;;;;;;;5036985;28;20211;-61
2023/07/15 10:41:43;;;;;;;5.30;3.08;;;;;;;;;;5046089;28;20223;-62
2023/07/15 10:44:20;;;;;;;6.13;2.78;;;;;;;;;;5037272;28;20302;-61
2023/07/15 10:46:51;;;;;;;3.65;2.63;;;;;;;;;;5037508;28;20246;-61
2023/07/15 10:49:21;;;;;;;5.75;2.42;;;;;;;;;;5037018;28;20579;-61
2023/07/15 10:51:52;;;;;;;5.38;2.50;;;;;;;;;;5036957;28;20714;-62
2023/07/15 10:54:21;;;;;;;3.88;2.70;;;;;;;;;;5037207;28;20663;-61
2023/07/15 10:56:49;;;;;;;5.35;2.85;;;;;;;;;;5039947;28;20211;-61
2023/07/15 10:59:17;;;;;;;5.90;2.45;;;;;;;;;;5045951;28;20210;-62
2023/07/15 11:01:45;;;;;;;8.30;2.78;;;;;;;;;;5046653;28;20322;-61
2023/07/15 11:04:14;;;;;;;3.17;2.40;;;;;;;;;;5040826;28;20199;-61
2023/07/15 11:06:42;;;;;;;5.00;2.83;;;;;;;;;;5040284;28;20211;-62
2023/07/15 11:09:16;;;;;;;5.80;2.65;;;;;;;;;;5040640;28;20256;-61
2023/07/15 11:11:44;;;;;;;4.43;2.92;;;;;;;;;;5039938;28;20591;-62
2023/07/15 11:14:22;;;;;;;5.57;2.65;;;;;;;;;;5040555;28;20227;-62
2023/07/15 11:16:52;;;;;;;6.15;2.67;;;;;;;;;;5044156;28;20670;-62
2023/07/15 11:19:23;;;;;;;4.35;2.60;;;;;;;;;;5040367;28;20203;-62
2023/07/15 11:21:51;;;;;;;4.82;2.65;;;;;;;;;;5039987;28;20567;-62
2023/07/15 11:24:21;;;;;;;6.18;3.08;;;;;;;;;;5040262;28;20566;-62
2023/07/15 11:26:49;;;;;;;6.57;3.03;;;;;;;;;;5040137;28;20211;-62
2023/07/15 11:29:18;;;;;;;3.03;2.67;;;;;;;;;;5039946;28;20230;-62
2023/07/15 11:31:47;;;;;;;5.15;3.03;;;;;;;;;;5040260;28;20302;-60
2023/07/15 11:34:16;;;;;;;5.45;2.90;;;;;;;;;;5039684;28;20716;-61
2023/07/15 11:36:45;;;;;;;6.10;2.42;;;;;;;;;;5039741;28;20625;-61
2023/07/15 11:39:14;;;;;;;5.63;2.60;;;;;;;;;;5040229;28;20215;-61
2023/07/15 11:41:43;;;;;;;4.57;3.03;;;;;;;;;;5044915;28;20314;-61
2023/07/15 11:44:11;;;;;;;3.67;2.53;;;;;;;;;;5046439;28;20210;-61
2023/07/15 11:46:39;;;;;;;5.63;3.13;;;;;;;;;;5059810;28;20226;-61
2023/07/15 11:49:08;;;;;;;3.42;2.50;;;;;;;;;;5059649;28;20553;-60
2023/07/15 11:51:36;;;;;;;3.25;2.67;;;;;;;;;;5059305;28;20631;-61
2023/07/15 11:54:09;;;;;;;4.63;2.85;;;;;;;;;;5059783;28;20222;-60
2023/07/15 11:56:38;;;;;;;7.05;2.65;;;;;;;;;;5059514;28;20206;-60
2023/07/15 11:59:06;;;;;;;5.55;3.78;;;;;;;;;;5059686;28;20206;-61
2023/07/15 12:01:34;;;;;;;6.32;2.80;;;;;;;;;;5043656;28;20235;-60
2023/07/15 12:04:02;;;;;;;13.73;4.35;;;;;;;;;;5039698;28;20253;-60
2023/07/15 12:06:30;;;;;;;7.82;2.90;;;;;;;;;;5039347;28;20216;-61
2023/07/15 12:09:05;;;;;;;6.65;2.65;;;;;;;;;;5039307;28;20654;-62
2023/07/15 12:11:35;;;;;;;3.50;3.10;;;;;;;;;;5039498;28;20227;-65
2023/07/15 12:14:05;;;;;;;5.45;3.20;;;;;;;;;;5046928;28;20249;-63
2023/07/15 12:16:34;;;;;;;3.88;2.95;;;;;;;;;;5042531;28;20198;-63
2023/07/15 12:19:02;;;;;;;6.63;2.88;;;;;;;;;;5048523;28;20577;-63
2023/07/15 12:21:30;;;;;;;7.28;3.38;;;;;;;;;;5039064;28;20224;-62
2023/07/15 12:23:59;;;;;;;5.97;3.17;;;;;;;;;;5055999;28;20198;-61
2023/07/15 12:26:26;;;;;;;7.35;3.17;;;;;;;;;;5063645;28;20207;-62
2023/07/15 12:28:56;;;;;;;5.38;3.03;;;;;;;;;;5038954;28;20215;-62
2023/07/15 12:31:23;;;;;;;3.33;2.88;;;;;;;;;;5038948;28;20255;-62
2023/07/15 12:33:51;;;;;;;3.53;3.22;;;;;;;;;;5038746;28;20239;-61
2023/07/15 12:36:19;;;;;;;3.88;3.00;;;;;;;;;;5038915;28;20211;-61
2023/07/15 12:38:47;;;;;;;4.93;3.00;;;;;;;;;;5064532;28;20248;-62
2023/07/15 12:41:15;;;;;;;6.10;3.95;;;;;;;;;;5065436;28;20312;-62
2023/07/15 12:43:43;;;;;;;3.45;3.13;;;;;;;;;;5065399;28;20579;-62
2023/07/15 12:46:12;;;;;;;5.20;2.97;;;;;;;;;;5066933;28;20206;-62
2023/07/15 12:48:41;;;;;;;4.95;3.00;;;;;;;;;;5067633;28;20285;-61
2023/07/15 12:51:09;;;;;;;6.05;3.10;;;;;;;;;;5064549;28;20350;-61
2023/07/15 12:53:37;;;;;;;4.10;3.25;;;;;;;;;;5061374;28;20229;-62
2023/07/15 12:56:11;;;;;;;12.30;4.05;;;;;;;;;;5049437;28;20207;-62
2023/07/15 12:58:39;;;;;;;4.50;3.20;;;;;;;;;;5038349;28;20207;-61
2023/07/15 13:01:07;;;;;;;5.25;3.60;;;;;;;;;;5038171;28;20230;-62
2023/07/15 13:03:36;;;;;;;7.00;3.75;;;;;;;;;;5038454;28;20286;-61
2023/07/15 13:06:04;;;;;;;5.30;3.35;;;;;;;;;;5038395;28;20203;-60
2023/07/15 13:08:32;;;;;;;3.38;3.00;;;;;;;;;;5038442;28;20210;-61
2023/07/15 13:10:59;;;;;;;3.72;3.20;;;;;;;;;;5038139;28;20242;-61
2023/07/15 13:13:27;;;;;;;7.40;3.72;;;;;;;;;;5038243;28;20238;-61
2023/07/15 13:15:55;;;;;;;4.85;3.60;;;;;;;;;;5038317;28;20207;-62
2023/07/15 13:18:23;;;;;;;5.20;3.45;;;;;;;;;;5051139;28;20207;-62
2023/07/15 13:20:52;;;;;;;11.00;3.20;;;;;;;;;;5038202;28;20222;-61
2023/07/15 13:23:20;;;;;;;5.53;2.78;;;;;;;;;;5063708;28;20209;-61
2023/07/15 13:25:48;;;;;;;5.38;3.10;;;;;;;;;;5037950;28;20222;-61
2023/07/15 13:28:16;;;;;;;6.70;3.55;;;;;;;;;;5037800;28;20218;-63
2023/07/15 13:30:46;;;;;;;4.95;3.25;;;;;;;;;;5037922;28;20590;-63
2023/07/15 13:33:14;;;;;;;5.60;3.50;;;;;;;;;;5060206;28;20238;-62
2023/07/15 13:35:42;;;;;;;5.90;3.10;;;;;;;;;;5063589;28;20496;-63
2023/07/15 13:38:11;;;;;;;3.70;3.40;;;;;;;;;;5066821;28;20206;-60
2023/07/15 13:40:39;;;;;;;9.75;3.38;;;;;;;;;;5066177;28;20219;-62
2023/07/15 13:43:07;;;;;;;6.05;3.45;;;;;;;;;;5043803;28;20238;-63
2023/07/15 13:45:35;;;;;;;3.97;3.17;;;;;;;;;;5037667;28;20207;-61
2023/07/15 13:48:03;;;;;;;6.03;3.22;;;;;;;;;;5037479;28;20247;-61
2023/07/15 13:50:32;;;;;;;5.05;3.33;;;;;;;;;;5037153;28;20227;-61
2023/07/15 13:53:01;;;;;;;7.72;3.50;;;;;;;;;;5052614;28;20202;-62
2023/07/15 13:55:30;;;;;;;5.53;3.55;;;;;;;;;;5046816;28;20229;-61
2023/07/15 13:57:58;;;;;;;4.65;3.53;;;;;;;;;;5037057;28;20215;-63
2023/07/15 14:00:26;;;;;;;7.50;3.53;;;;;;;;;;5040312;28;20686;-60
2023/07/15 14:02:54;;;;;;;5.13;3.47;;;;;;;;;;5042444;28;20202;-62
2023/07/15 14:05:22;;;;;;;3.95;3.50;;;;;;;;;;5054604;28;20225;-62
2023/07/15 14:07:50;;;;;;;4.18;3.08;;;;;;;;;;5037896;28;20227;-62
2023/07/15 14:10:18;;;;;;;3.72;3.38;;;;;;;;;;5054455;28;20229;-62
2023/07/15 14:12:47;;;;;;;6.97;3.40;;;;;;;;;;5056895;28;20210;-62
2023/07/15 14:15:15;;;;;;;6.30;3.67;;;;;;;;;;5057200;28;20760;-62
2023/07/15 14:17:43;;;;;;;5.28;3.50;;;;;;;;;;5057281;28;20401;-63
2023/07/15 14:20:11;;;;;;;3.80;3.42;;;;;;;;;;5037287;28;20242;-62
2023/07/15 14:22:39;;;;;;;4.05;3.15;;;;;;;;;;5037144;28;20215;-62
2023/07/15 14:25:16;;;;;;;3.78;2.97;;;;;;;;;;5045093;28;20233;-62
2023/07/15 14:27:44;;;;;;;4.78;3.30;;;;;;;;;;5036717;28;20672;-62
2023/07/15 14:30:13;;;;;;;6.43;3.70;;;;;;;;;;5037682;28;20639;-62
2023/07/15 14:32:41;;;;;;;5.32;3.20;;;;;;;;;;5040957;28;20744;-61
2023/07/15 14:35:09;;;;;;;9.80;3.53;;;;;;;;;;5040759;28;20314;-60
2023/07/15 14:37:37;;;;;;;5.32;2.92;;;;;;;;;;5040812;28;20211;-61
2023/07/15 14:40:06;;;;;;;4.97;3.70;;;;;;;;;;5045675;28;20670;-61
2023/07/15 14:42:33;;;;;;;3.97;2.85;;;;;;;;;;5047694;28;20217;-60
2023/07/15 14:45:01;;;;;;;3.72;3.08;;;;;;;;;;5050936;28;20203;-60
2023/07/15 14:47:33;;;;;;;4.13;3.05;;;;;;;;;;5059263;28;20237;-62
2023/07/15 14:50:01;;;;;;;6.45;3.50;;;;;;;;;;5060908;28;20791;-61
2023/07/15 14:52:28;;;;;;;5.10;3.40;;;;;;;;;;5055885;28;20253;-62